sensor_id;sensor_type;location;lat;lon;timestamp;P1;durP1;ratioP1;P2;durP2;ratioP2
26574;SDS011;67165;50.256;10.978;2023-11-21T00:02:19;9.95;;;4.65;;
26574;SDS011;67165;50.256;10.978;2023-11-21T00:04:45;10.95;;;6.25;;
26574;SDS011;67165;50.256;10.978;2023-11-21T00:07:12;13.35;;;6.70;;
26574;SDS011;67165;50.256;10.978;2023-11-21T00:09:38;9.98;;;5.32;;
26574;SDS011;67165;50.256;10.978;2023-11-21T00:12:03;7.75;;;4.55;;
26574;SDS011;67165;50.256;10.978;2023-11-21T00:14:29;11.60;;;6.80;;
26574;SDS011;67165;50.256;10.978;2023-11-21T00:16:55;12.73;;;6.60;;
26574;SDS011;67165;50.256;10.978;2023-11-21T00:19:20;7.85;;;5.20;;
26574;SDS011;67165;50.256;10.978;2023-11-21T00:21:46;10.15;;;4.20;;
26574;SDS011;67165;50.256;10.978;2023-11-21T00:24:12;7.75;;;3.78;;
26574;SDS011;67165;50.256;10.978;2023-11-21T00:26:39;8.57;;;4.10;;
26574;SDS011;67165;50.256;10.978;2023-11-21T00:29:05;8.70;;;3.80;;
26574;SDS011;67165;50.256;10.978;2023-11-21T00:31:33;7.15;;;3.53;;
26574;SDS011;67165;50.256;10.978;2023-11-21T00:34:04;7.00;;;3.55;;
26574;SDS011;67165;50.256;10.978;2023-11-21T00:36:30;5.72;;;3.63;;
26574;SDS011;67165;50.256;10.978;2023-11-21T00:38:57;7.53;;;3.85;;
26574;SDS011;67165;50.256;10.978;2023-11-21T00:41:23;9.35;;;4.82;;
26574;SDS011;67165;50.256;10.978;2023-11-21T00:43:48;6.88;;;4.20;;
26574;SDS011;67165;50.256;10.978;2023-11-21T00:46:14;6.28;;;3.92;;
26574;SDS011;67165;50.256;10.978;2023-11-21T00:48:39;9.65;;;3.85;;
26574;SDS011;67165;50.256;10.978;2023-11-21T00:51:05;8.15;;;4.00;;
26574;SDS011;67165;50.256;10.978;2023-11-21T00:53:31;7.03;;;3.67;;
26574;SDS011;67165;50.256;10.978;2023-11-21T00:55:57;6.53;;;3.75;;
26574;SDS011;67165;50.256;10.978;2023-11-21T00:58:26;9.43;;;3.97;;
26574;SDS011;67165;50.256;10.978;2023-11-21T01:00:52;8.13;;;3.53;;
26574;SDS011;67165;50.256;10.978;2023-11-21T01:03:18;8.20;;;4.00;;
26574;SDS011;67165;50.256;10.978;2023-11-21T01:05:43;5.28;;;3.58;;
26574;SDS011;67165;50.256;10.978;2023-11-21T01:08:10;6.00;;;3.90;;
26574;SDS011;67165;50.256;10.978;2023-11-21T01:10:36;11.00;;;4.13;;
26574;SDS011;67165;50.256;10.978;2023-11-21T01:13:02;8.75;;;5.05;;
26574;SDS011;67165;50.256;10.978;2023-11-21T01:15:30;8.27;;;3.70;;
26574;SDS011;67165;50.256;10.978;2023-11-21T01:17:56;8.63;;;4.43;;
26574;SDS011;67165;50.256;10.978;2023-11-21T01:20:22;8.82;;;4.55;;
26574;SDS011;67165;50.256;10.978;2023-11-21T01:22:48;8.20;;;4.13;;
26574;SDS011;67165;50.256;10.978;2023-11-21T01:25:14;6.35;;;4.03;;
26574;SDS011;67165;50.256;10.978;2023-11-21T01:27:41;11.02;;;4.00;;
26574;SDS011;67165;50.256;10.978;2023-11-21T01:30:08;8.40;;;4.00;;
26574;SDS011;67165;50.256;10.978;2023-11-21T01:32:36;6.75;;;4.15;;
26574;SDS011;67165;50.256;10.978;2023-11-21T01:35:02;8.07;;;4.32;;
26574;SDS011;67165;50.256;10.978;2023-11-21T01:37:28;8.55;;;4.15;;
26574;SDS011;67165;50.256;10.978;2023-11-21T01:39:54;5.40;;;3.90;;
26574;SDS011;67165;50.256;10.978;2023-11-21T01:42:23;10.48;;;4.80;;
26574;SDS011;67165;50.256;10.978;2023-11-21T01:44:49;7.68;;;4.35;;
26574;SDS011;67165;50.256;10.978;2023-11-21T01:47:15;6.35;;;4.13;;
26574;SDS011;67165;50.256;10.978;2023-11-21T01:49:43;10.95;;;4.70;;
26574;SDS011;67165;50.256;10.978;2023-11-21T01:52:10;9.02;;;4.20;;
26574;SDS011;67165;50.256;10.978;2023-11-21T01:54:36;8.48;;;4.63;;
26574;SDS011;67165;50.256;10.978;2023-11-21T01:57:02;8.75;;;4.88;;
26574;SDS011;67165;50.256;10.978;2023-11-21T01:59:34;9.57;;;4.70;;
26574;SDS011;67165;50.256;10.978;2023-11-21T02:02:02;7.65;;;4.50;;
26574;SDS011;67165;50.256;10.978;2023-11-21T02:04:30;7.57;;;4.65;;
26574;SDS011;67165;50.256;10.978;2023-11-21T02:06:57;7.97;;;5.55;;
26574;SDS011;67165;50.256;10.978;2023-11-21T02:09:24;8.25;;;5.00;;
26574;SDS011;67165;50.256;10.978;2023-11-21T02:11:53;9.60;;;5.05;;
26574;SDS011;67165;50.256;10.978;2023-11-21T02:14:22;8.13;;;5.35;;
26574;SDS011;67165;50.256;10.978;2023-11-21T02:16:50;15.35;;;5.65;;
26574;SDS011;67165;50.256;10.978;2023-11-21T02:19:20;11.05;;;5.13;;
26574;SDS011;67165;50.256;10.978;2023-11-21T02:21:50;10.27;;;5.50;;
26574;SDS011;67165;50.256;10.978;2023-11-21T02:24:20;11.13;;;6.03;;
26574;SDS011;67165;50.256;10.978;2023-11-21T02:26:47;9.98;;;5.22;;
26574;SDS011;67165;50.256;10.978;2023-11-21T02:29:13;9.40;;;5.40;;
26574;SDS011;67165;50.256;10.978;2023-11-21T02:31:42;7.90;;;5.45;;
26574;SDS011;67165;50.256;10.978;2023-11-21T02:34:16;9.52;;;5.82;;
26574;SDS011;67165;50.256;10.978;2023-11-21T02:36:45;10.60;;;6.10;;
26574;SDS011;67165;50.256;10.978;2023-11-21T02:39:14;11.48;;;6.10;;
26574;SDS011;67165;50.256;10.978;2023-11-21T02:41:41;9.05;;;5.50;;
26574;SDS011;67165;50.256;10.978;2023-11-21T02:44:07;12.05;;;6.32;;
26574;SDS011;67165;50.256;10.978;2023-11-21T02:46:36;9.15;;;5.50;;
26574;SDS011;67165;50.256;10.978;2023-11-21T02:49:02;10.55;;;5.82;;
26574;SDS011;67165;50.256;10.978;2023-11-21T02:51:29;10.15;;;5.38;;
26574;SDS011;67165;50.256;10.978;2023-11-21T02:53:55;10.05;;;5.47;;
26574;SDS011;67165;50.256;10.978;2023-11-21T02:56:24;9.50;;;5.25;;
26574;SDS011;67165;50.256;10.978;2023-11-21T02:58:51;11.02;;;5.00;;
26574;SDS011;67165;50.256;10.978;2023-11-21T03:01:17;11.55;;;5.10;;
26574;SDS011;67165;50.256;10.978;2023-11-21T03:03:43;7.05;;;4.95;;
26574;SDS011;67165;50.256;10.978;2023-11-21T03:06:08;6.85;;;4.90;;
26574;SDS011;67165;50.256;10.978;2023-11-21T03:08:34;12.23;;;5.65;;
26574;SDS011;67165;50.256;10.978;2023-11-21T03:11:00;15.45;;;5.80;;
26574;SDS011;67165;50.256;10.978;2023-11-21T03:13:28;8.57;;;5.10;;
26574;SDS011;67165;50.256;10.978;2023-11-21T03:15:54;11.00;;;5.10;;
26574;SDS011;67165;50.256;10.978;2023-11-21T03:18:19;10.40;;;5.72;;
26574;SDS011;67165;50.256;10.978;2023-11-21T03:20:47;9.27;;;5.32;;
26574;SDS011;67165;50.256;10.978;2023-11-21T03:23:13;10.70;;;5.97;;
26574;SDS011;67165;50.256;10.978;2023-11-21T03:25:38;11.63;;;5.43;;
26574;SDS011;67165;50.256;10.978;2023-11-21T03:28:04;12.93;;;5.88;;
26574;SDS011;67165;50.256;10.978;2023-11-21T03:30:30;12.02;;;5.68;;
26574;SDS011;67165;50.256;10.978;2023-11-21T03:32:55;9.45;;;4.78;;
26574;SDS011;67165;50.256;10.978;2023-11-21T03:35:21;10.85;;;5.80;;
26574;SDS011;67165;50.256;10.978;2023-11-21T03:37:48;12.43;;;5.80;;
26574;SDS011;67165;50.256;10.978;2023-11-21T03:40:13;14.20;;;6.60;;
26574;SDS011;67165;50.256;10.978;2023-11-21T03:42:39;17.13;;;6.30;;
26574;SDS011;67165;50.256;10.978;2023-11-21T03:45:05;9.73;;;6.10;;
26574;SDS011;67165;50.256;10.978;2023-11-21T03:47:31;13.13;;;6.97;;
26574;SDS011;67165;50.256;10.978;2023-11-21T03:49:57;14.13;;;6.70;;
26574;SDS011;67165;50.256;10.978;2023-11-21T03:52:23;9.98;;;6.50;;
26574;SDS011;67165;50.256;10.978;2023-11-21T03:54:49;15.73;;;7.90;;
26574;SDS011;67165;50.256;10.978;2023-11-21T03:57:15;12.05;;;7.72;;
26574;SDS011;67165;50.256;10.978;2023-11-21T03:59:41;11.70;;;7.60;;
26574;SDS011;67165;50.256;10.978;2023-11-21T04:02:07;15.40;;;7.40;;
26574;SDS011;67165;50.256;10.978;2023-11-21T04:04:33;11.95;;;7.70;;
26574;SDS011;67165;50.256;10.978;2023-11-21T04:06:59;9.65;;;6.95;;
26574;SDS011;67165;50.256;10.978;2023-11-21T04:09:25;17.00;;;7.90;;
26574;SDS011;67165;50.256;10.978;2023-11-21T04:11:51;9.52;;;6.95;;
26574;SDS011;67165;50.256;10.978;2023-11-21T04:14:17;10.40;;;6.80;;
26574;SDS011;67165;50.256;10.978;2023-11-21T04:16:43;12.18;;;7.82;;
26574;SDS011;67165;50.256;10.978;2023-11-21T04:19:09;16.08;;;8.48;;
26574;SDS011;67165;50.256;10.978;2023-11-21T04:21:35;15.38;;;7.93;;
26574;SDS011;67165;50.256;10.978;2023-11-21T04:24:01;13.05;;;8.13;;
26574;SDS011;67165;50.256;10.978;2023-11-21T04:26:27;10.90;;;7.15;;
26574;SDS011;67165;50.256;10.978;2023-11-21T04:28:53;10.95;;;7.68;;
26574;SDS011;67165;50.256;10.978;2023-11-21T04:31:18;17.50;;;8.80;;
26574;SDS011;67165;50.256;10.978;2023-11-21T04:33:44;12.85;;;8.65;;
26574;SDS011;67165;50.256;10.978;2023-11-21T04:36:10;12.70;;;7.22;;
26574;SDS011;67165;50.256;10.978;2023-11-21T04:38:35;12.88;;;7.05;;
26574;SDS011;67165;50.256;10.978;2023-11-21T04:41:01;11.43;;;7.47;;
26574;SDS011;67165;50.256;10.978;2023-11-21T04:43:27;16.48;;;8.75;;
26574;SDS011;67165;50.256;10.978;2023-11-21T04:45:53;13.35;;;8.15;;
26574;SDS011;67165;50.256;10.978;2023-11-21T04:48:19;11.52;;;7.60;;
26574;SDS011;67165;50.256;10.978;2023-11-21T04:50:45;17.52;;;8.65;;
26574;SDS011;67165;50.256;10.978;2023-11-21T04:53:11;14.38;;;8.13;;
26574;SDS011;67165;50.256;10.978;2023-11-21T04:55:39;16.35;;;8.45;;
26574;SDS011;67165;50.256;10.978;2023-11-21T04:58:08;20.85;;;9.95;;
26574;SDS011;67165;50.256;10.978;2023-11-21T05:00:33;14.32;;;8.85;;
26574;SDS011;67165;50.256;10.978;2023-11-21T05:03:00;17.48;;;8.70;;
26574;SDS011;67165;50.256;10.978;2023-11-21T05:05:26;19.42;;;8.95;;
26574;SDS011;67165;50.256;10.978;2023-11-21T05:07:52;16.42;;;8.65;;
26574;SDS011;67165;50.256;10.978;2023-11-21T05:10:18;16.35;;;8.55;;
26574;SDS011;67165;50.256;10.978;2023-11-21T05:12:44;16.90;;;9.02;;
26574;SDS011;67165;50.256;10.978;2023-11-21T05:15:13;18.10;;;9.25;;
26574;SDS011;67165;50.256;10.978;2023-11-21T05:17:40;16.52;;;8.57;;
26574;SDS011;67165;50.256;10.978;2023-11-21T05:20:14;14.38;;;7.88;;
26574;SDS011;67165;50.256;10.978;2023-11-21T05:22:46;17.48;;;8.90;;
26574;SDS011;67165;50.256;10.978;2023-11-21T05:25:13;19.98;;;9.80;;
26574;SDS011;67165;50.256;10.978;2023-11-21T05:27:39;16.10;;;8.95;;
26574;SDS011;67165;50.256;10.978;2023-11-21T05:30:05;18.52;;;9.02;;
26574;SDS011;67165;50.256;10.978;2023-11-21T05:32:31;14.02;;;8.85;;
26574;SDS011;67165;50.256;10.978;2023-11-21T05:35:00;16.08;;;8.93;;
26574;SDS011;67165;50.256;10.978;2023-11-21T05:37:26;19.15;;;9.48;;
26574;SDS011;67165;50.256;10.978;2023-11-21T05:39:55;15.15;;;9.20;;
26574;SDS011;67165;50.256;10.978;2023-11-21T05:42:24;17.10;;;8.77;;
26574;SDS011;67165;50.256;10.978;2023-11-21T05:44:50;14.30;;;8.45;;
26574;SDS011;67165;50.256;10.978;2023-11-21T05:47:16;15.43;;;9.23;;
26574;SDS011;67165;50.256;10.978;2023-11-21T05:49:42;18.90;;;9.82;;
26574;SDS011;67165;50.256;10.978;2023-11-21T05:52:07;18.90;;;10.98;;
26574;SDS011;67165;50.256;10.978;2023-11-21T05:54:33;14.73;;;9.65;;
26574;SDS011;67165;50.256;10.978;2023-11-21T05:56:59;18.45;;;10.25;;
26574;SDS011;67165;50.256;10.978;2023-11-21T05:59:25;14.15;;;8.40;;
26574;SDS011;67165;50.256;10.978;2023-11-21T06:01:50;16.35;;;9.10;;
26574;SDS011;67165;50.256;10.978;2023-11-21T06:04:17;19.65;;;9.10;;
26574;SDS011;67165;50.256;10.978;2023-11-21T06:06:43;22.15;;;9.88;;
26574;SDS011;67165;50.256;10.978;2023-11-21T06:09:09;18.15;;;9.90;;
26574;SDS011;67165;50.256;10.978;2023-11-21T06:11:35;18.88;;;10.32;;
26574;SDS011;67165;50.256;10.978;2023-11-21T06:14:01;19.33;;;12.10;;
26574;SDS011;67165;50.256;10.978;2023-11-21T06:16:27;17.92;;;11.40;;
26574;SDS011;67165;50.256;10.978;2023-11-21T06:18:53;29.17;;;11.95;;
26574;SDS011;67165;50.256;10.978;2023-11-21T06:21:18;19.95;;;11.38;;
26574;SDS011;67165;50.256;10.978;2023-11-21T06:23:44;17.30;;;10.63;;
26574;SDS011;67165;50.256;10.978;2023-11-21T06:26:10;19.30;;;9.95;;
26574;SDS011;67165;50.256;10.978;2023-11-21T06:28:36;18.63;;;10.63;;
26574;SDS011;67165;50.256;10.978;2023-11-21T06:31:01;17.80;;;9.82;;
26574;SDS011;67165;50.256;10.978;2023-11-21T06:33:33;17.67;;;10.30;;
26574;SDS011;67165;50.256;10.978;2023-11-21T06:35:59;16.50;;;10.85;;
26574;SDS011;67165;50.256;10.978;2023-11-21T06:38:27;20.48;;;10.48;;
26574;SDS011;67165;50.256;10.978;2023-11-21T06:40:55;29.20;;;12.05;;
26574;SDS011;67165;50.256;10.978;2023-11-21T06:43:21;18.45;;;10.93;;
26574;SDS011;67165;50.256;10.978;2023-11-21T06:45:47;15.75;;;9.93;;
26574;SDS011;67165;50.256;10.978;2023-11-21T06:48:13;14.63;;;9.20;;
26574;SDS011;67165;50.256;10.978;2023-11-21T06:50:38;20.02;;;11.45;;
26574;SDS011;67165;50.256;10.978;2023-11-21T06:53:04;19.52;;;11.38;;
26574;SDS011;67165;50.256;10.978;2023-11-21T06:55:32;18.25;;;10.55;;
26574;SDS011;67165;50.256;10.978;2023-11-21T06:57:58;21.98;;;11.77;;
26574;SDS011;67165;50.256;10.978;2023-11-21T07:00:25;21.98;;;12.15;;
26574;SDS011;67165;50.256;10.978;2023-11-21T07:02:53;21.38;;;12.05;;
26574;SDS011;67165;50.256;10.978;2023-11-21T07:05:19;22.35;;;10.63;;
26574;SDS011;67165;50.256;10.978;2023-11-21T07:07:46;14.85;;;9.98;;
26574;SDS011;67165;50.256;10.978;2023-11-21T07:10:13;20.70;;;11.70;;
26574;SDS011;67165;50.256;10.978;2023-11-21T07:12:39;19.65;;;11.48;;
26574;SDS011;67165;50.256;10.978;2023-11-21T07:15:05;26.05;;;14.20;;
26574;SDS011;67165;50.256;10.978;2023-11-21T07:17:34;25.02;;;13.50;;
26574;SDS011;67165;50.256;10.978;2023-11-21T07:20:03;28.75;;;15.75;;
26574;SDS011;67165;50.256;10.978;2023-11-21T07:22:29;28.48;;;15.25;;
26574;SDS011;67165;50.256;10.978;2023-11-21T07:24:55;26.02;;;14.07;;
26574;SDS011;67165;50.256;10.978;2023-11-21T07:27:23;31.35;;;16.85;;
26574;SDS011;67165;50.256;10.978;2023-11-21T07:29:49;29.38;;;16.52;;
26574;SDS011;67165;50.256;10.978;2023-11-21T07:32:14;29.70;;;15.60;;
26574;SDS011;67165;50.256;10.978;2023-11-21T07:34:41;40.70;;;21.77;;
26574;SDS011;67165;50.256;10.978;2023-11-21T07:37:07;32.60;;;18.42;;
26574;SDS011;67165;50.256;10.978;2023-11-21T07:39:34;36.97;;;19.60;;
26574;SDS011;67165;50.256;10.978;2023-11-21T07:42:01;34.17;;;19.23;;
26574;SDS011;67165;50.256;10.978;2023-11-21T07:44:27;32.85;;;16.77;;
26574;SDS011;67165;50.256;10.978;2023-11-21T07:46:54;25.00;;;15.65;;
26574;SDS011;67165;50.256;10.978;2023-11-21T07:49:22;24.20;;;14.43;;
26574;SDS011;67165;50.256;10.978;2023-11-21T07:51:49;26.30;;;13.65;;
26574;SDS011;67165;50.256;10.978;2023-11-21T07:54:15;26.42;;;14.45;;
26574;SDS011;67165;50.256;10.978;2023-11-21T07:56:41;21.55;;;13.38;;
26574;SDS011;67165;50.256;10.978;2023-11-21T07:59:06;24.27;;;14.75;;
26574;SDS011;67165;50.256;10.978;2023-11-21T08:01:32;25.33;;;13.88;;
26574;SDS011;67165;50.256;10.978;2023-11-21T08:03:58;22.92;;;14.02;;
26574;SDS011;67165;50.256;10.978;2023-11-21T08:06:26;25.55;;;13.70;;
26574;SDS011;67165;50.256;10.978;2023-11-21T08:08:53;27.02;;;13.88;;
26574;SDS011;67165;50.256;10.978;2023-11-21T08:11:19;26.75;;;14.07;;
26574;SDS011;67165;50.256;10.978;2023-11-21T08:13:44;24.77;;;13.18;;
26574;SDS011;67165;50.256;10.978;2023-11-21T08:16:11;22.23;;;13.07;;
26574;SDS011;67165;50.256;10.978;2023-11-21T08:18:37;23.80;;;14.40;;
26574;SDS011;67165;50.256;10.978;2023-11-21T08:21:03;27.05;;;14.32;;
26574;SDS011;67165;50.256;10.978;2023-11-21T08:23:30;21.20;;;13.43;;
26574;SDS011;67165;50.256;10.978;2023-11-21T08:25:56;21.60;;;13.07;;
26574;SDS011;67165;50.256;10.978;2023-11-21T08:28:21;24.48;;;12.73;;
26574;SDS011;67165;50.256;10.978;2023-11-21T08:30:48;22.73;;;12.70;;
26574;SDS011;67165;50.256;10.978;2023-11-21T08:33:13;22.25;;;13.23;;
26574;SDS011;67165;50.256;10.978;2023-11-21T08:35:39;23.17;;;14.10;;
26574;SDS011;67165;50.256;10.978;2023-11-21T08:38:05;21.73;;;12.95;;
26574;SDS011;67165;50.256;10.978;2023-11-21T08:40:30;22.50;;;12.88;;
26574;SDS011;67165;50.256;10.978;2023-11-21T08:42:56;21.95;;;13.00;;
26574;SDS011;67165;50.256;10.978;2023-11-21T08:45:23;21.70;;;13.18;;
26574;SDS011;67165;50.256;10.978;2023-11-21T08:47:51;17.95;;;12.27;;
26574;SDS011;67165;50.256;10.978;2023-11-21T08:50:16;26.35;;;14.35;;
26574;SDS011;67165;50.256;10.978;2023-11-21T08:52:43;20.55;;;12.48;;
26574;SDS011;67165;50.256;10.978;2023-11-21T08:55:11;17.33;;;12.13;;
26574;SDS011;67165;50.256;10.978;2023-11-21T08:57:39;18.23;;;11.77;;
26574;SDS011;67165;50.256;10.978;2023-11-21T09:00:07;16.95;;;11.43;;
26574;SDS011;67165;50.256;10.978;2023-11-21T09:02:41;15.13;;;10.20;;
26574;SDS011;67165;50.256;10.978;2023-11-21T09:05:07;15.80;;;11.05;;
26574;SDS011;67165;50.256;10.978;2023-11-21T09:07:34;14.98;;;10.40;;
26574;SDS011;67165;50.256;10.978;2023-11-21T09:10:00;14.35;;;9.70;;
26574;SDS011;67165;50.256;10.978;2023-11-21T09:12:26;14.98;;;9.77;;
26574;SDS011;67165;50.256;10.978;2023-11-21T09:14:52;14.93;;;9.80;;
26574;SDS011;67165;50.256;10.978;2023-11-21T09:17:18;12.20;;;9.32;;
26574;SDS011;67165;50.256;10.978;2023-11-21T09:19:43;14.32;;;10.13;;
26574;SDS011;67165;50.256;10.978;2023-11-21T09:22:16;16.45;;;10.32;;
26574;SDS011;67165;50.256;10.978;2023-11-21T09:24:42;14.60;;;9.70;;
26574;SDS011;67165;50.256;10.978;2023-11-21T09:27:07;13.75;;;9.57;;
26574;SDS011;67165;50.256;10.978;2023-11-21T09:29:34;14.38;;;9.40;;
26574;SDS011;67165;50.256;10.978;2023-11-21T09:32:00;13.55;;;8.77;;
26574;SDS011;67165;50.256;10.978;2023-11-21T09:34:26;13.95;;;9.57;;
26574;SDS011;67165;50.256;10.978;2023-11-21T09:36:52;14.02;;;10.00;;
26574;SDS011;67165;50.256;10.978;2023-11-21T09:39:18;15.45;;;10.18;;
26574;SDS011;67165;50.256;10.978;2023-11-21T09:41:46;14.35;;;10.07;;
26574;SDS011;67165;50.256;10.978;2023-11-21T09:44:56;14.88;;;9.05;;
26574;SDS011;67165;50.256;10.978;2023-11-21T09:47:21;13.32;;;7.90;;
26574;SDS011;67165;50.256;10.978;2023-11-21T09:49:48;12.35;;;7.63;;
26574;SDS011;67165;50.256;10.978;2023-11-21T09:52:26;13.90;;;7.18;;
26574;SDS011;67165;50.256;10.978;2023-11-21T09:54:52;14.13;;;7.40;;
26574;SDS011;67165;50.256;10.978;2023-11-21T09:57:20;11.88;;;7.40;;
26574;SDS011;67165;50.256;10.978;2023-11-21T09:59:50;12.27;;;7.57;;
26574;SDS011;67165;50.256;10.978;2023-11-21T10:02:36;14.15;;;7.40;;
26574;SDS011;67165;50.256;10.978;2023-11-21T10:05:05;11.25;;;6.50;;
26574;SDS011;67165;50.256;10.978;2023-11-21T10:07:32;10.48;;;6.15;;
26574;SDS011;67165;50.256;10.978;2023-11-21T10:10:00;12.32;;;6.50;;
26574;SDS011;67165;50.256;10.978;2023-11-21T10:12:27;11.00;;;6.57;;
26574;SDS011;67165;50.256;10.978;2023-11-21T10:14:54;10.23;;;6.22;;
26574;SDS011;67165;50.256;10.978;2023-11-21T10:17:22;10.02;;;6.53;;
26574;SDS011;67165;50.256;10.978;2023-11-21T10:19:52;9.88;;;6.80;;
26574;SDS011;67165;50.256;10.978;2023-11-21T10:22:19;9.63;;;6.70;;
26574;SDS011;67165;50.256;10.978;2023-11-21T10:24:45;11.98;;;7.00;;
26574;SDS011;67165;50.256;10.978;2023-11-21T10:27:11;8.15;;;5.47;;
26574;SDS011;67165;50.256;10.978;2023-11-21T10:29:38;8.68;;;5.00;;
26574;SDS011;67165;50.256;10.978;2023-11-21T10:32:04;8.18;;;4.80;;
26574;SDS011;67165;50.256;10.978;2023-11-21T10:34:30;7.38;;;4.72;;
26574;SDS011;67165;50.256;10.978;2023-11-21T10:36:56;7.18;;;4.00;;
26574;SDS011;67165;50.256;10.978;2023-11-21T10:39:23;7.85;;;4.45;;
26574;SDS011;67165;50.256;10.978;2023-11-21T10:41:54;9.00;;;4.28;;
26574;SDS011;67165;50.256;10.978;2023-11-21T10:44:20;10.98;;;5.00;;
26574;SDS011;67165;50.256;10.978;2023-11-21T10:46:53;13.43;;;4.57;;
26574;SDS011;67165;50.256;10.978;2023-11-21T10:49:22;8.00;;;4.00;;
26574;SDS011;67165;50.256;10.978;2023-11-21T10:51:52;9.18;;;4.25;;
26574;SDS011;67165;50.256;10.978;2023-11-21T10:54:22;8.60;;;4.20;;
26574;SDS011;67165;50.256;10.978;2023-11-21T10:56:50;7.40;;;3.80;;
26574;SDS011;67165;50.256;10.978;2023-11-21T10:59:22;11.27;;;4.50;;
26574;SDS011;67165;50.256;10.978;2023-11-21T11:01:50;11.95;;;3.92;;
26574;SDS011;67165;50.256;10.978;2023-11-21T11:04:20;8.55;;;3.88;;
26574;SDS011;67165;50.256;10.978;2023-11-21T11:07:01;9.15;;;3.83;;
26574;SDS011;67165;50.256;10.978;2023-11-21T11:09:28;8.77;;;3.45;;
26574;SDS011;67165;50.256;10.978;2023-11-21T11:11:55;7.93;;;4.05;;
26574;SDS011;67165;50.256;10.978;2023-11-21T11:14:21;9.57;;;4.03;;
26574;SDS011;67165;50.256;10.978;2023-11-21T11:16:52;5.03;;;3.20;;
26574;SDS011;67165;50.256;10.978;2023-11-21T11:19:19;6.90;;;3.65;;
26574;SDS011;67165;50.256;10.978;2023-11-21T11:22:00;4.88;;;3.50;;
26574;SDS011;67165;50.256;10.978;2023-11-21T11:30:38;7.10;;;3.20;;
26574;SDS011;67165;50.256;10.978;2023-11-21T11:41:55;8.52;;;3.72;;
26574;SDS011;67165;50.256;10.978;2023-11-21T11:47:30;9.02;;;3.72;;
26574;SDS011;67165;50.256;10.978;2023-11-21T11:50:12;7.78;;;3.60;;
26574;SDS011;67165;50.256;10.978;2023-11-21T11:55:30;7.78;;;3.30;;
26574;SDS011;67165;50.256;10.978;2023-11-21T11:57:55;7.53;;;3.30;;
26574;SDS011;67165;50.256;10.978;2023-11-21T12:02:59;9.50;;;3.38;;
26574;SDS011;67165;50.256;10.978;2023-11-21T12:05:29;10.45;;;3.35;;
26574;SDS011;67165;50.256;10.978;2023-11-21T12:07:58;8.30;;;3.40;;
26574;SDS011;67165;50.256;10.978;2023-11-21T12:10:30;7.80;;;3.20;;
26574;SDS011;67165;50.256;10.978;2023-11-21T12:12:58;8.57;;;3.03;;
26574;SDS011;67165;50.256;10.978;2023-11-21T12:15:26;13.30;;;3.05;;
26574;SDS011;67165;50.256;10.978;2023-11-21T12:17:55;8.45;;;3.58;;
26574;SDS011;67165;50.256;10.978;2023-11-21T12:20:22;8.88;;;3.05;;
26574;SDS011;67165;50.256;10.978;2023-11-21T12:22:49;7.32;;;3.20;;
26574;SDS011;67165;50.256;10.978;2023-11-21T12:25:17;9.13;;;3.25;;
26574;SDS011;67165;50.256;10.978;2023-11-21T12:27:50;6.47;;;3.10;;
26574;SDS011;67165;50.256;10.978;2023-11-21T12:30:18;13.48;;;3.95;;
26574;SDS011;67165;50.256;10.978;2023-11-21T12:32:50;11.45;;;3.67;;
26574;SDS011;67165;50.256;10.978;2023-11-21T12:35:17;10.68;;;3.80;;
26574;SDS011;67165;50.256;10.978;2023-11-21T12:37:46;7.40;;;3.45;;
26574;SDS011;67165;50.256;10.978;2023-11-21T12:40:13;9.57;;;3.65;;
26574;SDS011;67165;50.256;10.978;2023-11-21T12:43:01;10.80;;;4.18;;
26574;SDS011;67165;50.256;10.978;2023-11-21T12:45:29;12.93;;;4.10;;
26574;SDS011;67165;50.256;10.978;2023-11-21T12:50:25;8.82;;;4.43;;
26574;SDS011;67165;50.256;10.978;2023-11-21T12:53:00;12.35;;;4.97;;
26574;SDS011;67165;50.256;10.978;2023-11-21T12:55:29;11.02;;;5.40;;
26574;SDS011;67165;50.256;10.978;2023-11-21T12:58:02;18.10;;;4.85;;
26574;SDS011;67165;50.256;10.978;2023-11-21T13:00:34;11.82;;;4.38;;
26574;SDS011;67165;50.256;10.978;2023-11-21T13:03:02;11.35;;;4.30;;
26574;SDS011;67165;50.256;10.978;2023-11-21T13:05:30;11.35;;;3.85;;
26574;SDS011;67165;50.256;10.978;2023-11-21T13:08:01;12.18;;;3.97;;
26574;SDS011;67165;50.256;10.978;2023-11-21T13:10:29;12.25;;;4.50;;
26574;SDS011;67165;50.256;10.978;2023-11-21T13:12:58;12.30;;;4.13;;
26574;SDS011;67165;50.256;10.978;2023-11-21T13:15:28;13.23;;;4.25;;
26574;SDS011;67165;50.256;10.978;2023-11-21T13:17:56;15.25;;;5.28;;
26574;SDS011;67165;50.256;10.978;2023-11-21T13:20:22;11.95;;;4.60;;
26574;SDS011;67165;50.256;10.978;2023-11-21T13:22:53;13.60;;;4.68;;
26574;SDS011;67165;50.256;10.978;2023-11-21T13:25:27;10.50;;;4.35;;
26574;SDS011;67165;50.256;10.978;2023-11-21T13:27:58;9.60;;;4.40;;
26574;SDS011;67165;50.256;10.978;2023-11-21T13:30:25;11.32;;;4.40;;
26574;SDS011;67165;50.256;10.978;2023-11-21T13:32:55;12.70;;;4.45;;
26574;SDS011;67165;50.256;10.978;2023-11-21T13:35:27;8.23;;;4.40;;
26574;SDS011;67165;50.256;10.978;2023-11-21T13:37:57;14.60;;;4.60;;
26574;SDS011;67165;50.256;10.978;2023-11-21T13:40:38;12.60;;;4.45;;
26574;SDS011;67165;50.256;10.978;2023-11-21T13:43:13;13.30;;;4.68;;
26574;SDS011;67165;50.256;10.978;2023-11-21T13:45:40;16.83;;;5.55;;
26574;SDS011;67165;50.256;10.978;2023-11-21T13:48:07;16.52;;;4.70;;
26574;SDS011;67165;50.256;10.978;2023-11-21T13:50:41;12.70;;;4.57;;
26574;SDS011;67165;50.256;10.978;2023-11-21T13:53:23;11.20;;;4.75;;
26574;SDS011;67165;50.256;10.978;2023-11-21T13:55:49;9.18;;;4.53;;
26574;SDS011;67165;50.256;10.978;2023-11-21T13:58:25;15.45;;;4.53;;
26574;SDS011;67165;50.256;10.978;2023-11-21T14:01:09;12.98;;;4.68;;
26574;SDS011;67165;50.256;10.978;2023-11-21T14:04:00;18.23;;;5.28;;
26574;SDS011;67165;50.256;10.978;2023-11-21T14:06:33;8.80;;;3.90;;
26574;SDS011;67165;50.256;10.978;2023-11-21T14:09:05;13.88;;;4.07;;
26574;SDS011;67165;50.256;10.978;2023-11-21T14:11:31;15.00;;;4.30;;
26574;SDS011;67165;50.256;10.978;2023-11-21T14:13:59;12.70;;;4.75;;
26574;SDS011;67165;50.256;10.978;2023-11-21T14:16:25;12.70;;;4.60;;
26574;SDS011;67165;50.256;10.978;2023-11-21T14:18:50;13.43;;;4.78;;
26574;SDS011;67165;50.256;10.978;2023-11-21T14:21:26;10.40;;;4.88;;
26574;SDS011;67165;50.256;10.978;2023-11-21T14:23:52;11.88;;;4.30;;
26574;SDS011;67165;50.256;10.978;2023-11-21T14:26:20;13.05;;;4.40;;
26574;SDS011;67165;50.256;10.978;2023-11-21T14:28:45;11.20;;;5.18;;
26574;SDS011;67165;50.256;10.978;2023-11-21T14:31:14;14.07;;;6.60;;
26574;SDS011;67165;50.256;10.978;2023-11-21T14:33:42;14.23;;;5.32;;
26574;SDS011;67165;50.256;10.978;2023-11-21T14:36:10;14.20;;;5.15;;
26574;SDS011;67165;50.256;10.978;2023-11-21T14:38:38;12.20;;;5.10;;
26574;SDS011;67165;50.256;10.978;2023-11-21T14:41:04;12.98;;;4.85;;
26574;SDS011;67165;50.256;10.978;2023-11-21T14:43:33;13.75;;;5.60;;
26574;SDS011;67165;50.256;10.978;2023-11-21T14:46:04;12.93;;;5.53;;
26574;SDS011;67165;50.256;10.978;2023-11-21T14:48:33;17.75;;;5.20;;
26574;SDS011;67165;50.256;10.978;2023-11-21T14:51:12;15.68;;;6.80;;
26574;SDS011;67165;50.256;10.978;2023-11-21T14:53:40;13.43;;;5.38;;